createdAt,value
2019-01-27T00:00:36.732Z,2.20
2019-01-27T00:04:37.676Z,2.20
2019-01-27T00:08:36.997Z,2.20
2019-01-27T00:12:36.101Z,2.10
2019-01-27T00:16:35.219Z,2.20
2019-01-27T00:20:34.322Z,2.10
2019-01-27T00:24:33.441Z,2.10
2019-01-27T00:28:32.565Z,2.10
2019-01-27T00:32:31.680Z,2.10
2019-01-27T00:36:30.776Z,2.00
2019-01-27T00:40:29.901Z,2.10
2019-01-27T00:44:29.019Z,2.10
2019-01-27T00:48:28.135Z,2.20
2019-01-27T00:52:27.431Z,2.20
2019-01-27T00:56:26.534Z,2.20
2019-01-27T01:00:26.983Z,2.20
2019-01-27T01:04:26.101Z,2.30
2019-01-27T01:08:25.191Z,2.30
2019-01-27T01:12:24.316Z,2.30
2019-01-27T01:16:23.416Z,2.20
2019-01-27T01:20:23.211Z,2.30
2019-01-27T01:24:22.319Z,2.20
2019-01-27T01:28:21.526Z,2.10
2019-01-27T01:32:20.629Z,2.10
2019-01-27T01:36:19.741Z,2.10
2019-01-27T01:40:19.121Z,2.00
2019-01-27T01:44:18.238Z,2.00
2019-01-27T01:48:17.350Z,2.00
2019-01-27T01:52:16.460Z,2.00
2019-01-27T01:56:15.569Z,1.90
2019-01-27T02:00:20.023Z,1.80
2019-01-27T02:04:19.163Z,1.70
2019-01-27T02:08:18.272Z,1.70
2019-01-27T02:12:17.389Z,1.70
2019-01-27T02:16:16.512Z,1.50
2019-01-27T02:20:15.636Z,1.50
2019-01-27T02:24:15.700Z,1.40
2019-01-27T02:28:14.809Z,1.40
2019-01-27T02:32:13.940Z,1.40
2019-01-27T02:36:13.046Z,1.50
2019-01-27T02:40:12.329Z,1.40
2019-01-27T02:44:11.452Z,1.30
2019-01-27T02:49:05.422Z,1.30
2019-01-27T02:53:04.578Z,1.30
2019-01-27T02:57:03.698Z,1.30
2019-01-27T03:01:03.793Z,1.30
2019-01-27T03:05:04.537Z,1.30
2019-01-27T03:09:07.780Z,1.40
2019-01-27T03:13:06.912Z,1.40
2019-01-27T03:17:06.026Z,1.30
2019-01-27T03:21:05.137Z,1.30
2019-01-27T03:25:07.151Z,1.20
2019-01-27T03:29:06.253Z,1.20
2019-01-27T03:33:05.371Z,1.20
2019-01-27T03:37:04.494Z,1.30
2019-01-27T03:41:03.598Z,1.30
2019-01-27T03:45:02.731Z,1.40
2019-01-27T03:49:01.844Z,1.40
2019-01-27T03:53:00.962Z,1.40
2019-01-27T03:57:00.102Z,1.50
2019-01-27T04:00:59.246Z,1.60
2019-01-27T04:04:58.375Z,1.60
2019-01-27T04:08:57.515Z,1.60
2019-01-27T04:12:56.624Z,1.60
2019-01-27T04:16:55.745Z,1.60
2019-01-27T04:20:55.855Z,1.60
2019-01-27T04:24:54.954Z,1.70
2019-01-27T04:28:54.078Z,1.60
2019-01-27T04:32:53.230Z,1.70
2019-01-27T04:36:52.348Z,1.80
2019-01-27T04:40:51.500Z,1.80
2019-01-27T04:44:51.675Z,1.90
2019-01-27T04:48:50.804Z,2.00
2019-01-27T04:52:49.939Z,1.90
2019-01-27T04:56:49.067Z,1.90
2019-01-27T05:00:48.179Z,2.00
2019-01-27T05:04:47.315Z,2.00
2019-01-27T05:08:46.441Z,2.10
2019-01-27T05:12:45.562Z,1.90
2019-01-27T05:16:45.293Z,1.90
2019-01-27T05:20:45.150Z,2.00
2019-01-27T05:24:45.205Z,2.10
2019-01-27T05:28:45.247Z,2.00
2019-01-27T05:32:45.279Z,1.90
2019-01-27T05:36:45.330Z,2.00
2019-01-27T05:40:45.266Z,2.00
2019-01-27T05:44:45.310Z,2.00
2019-01-27T05:48:45.415Z,2.10
2019-01-27T05:52:45.224Z,2.10
2019-01-27T05:56:45.255Z,2.10
2019-01-27T06:00:46.861Z,2.00
2019-01-27T06:04:45.979Z,1.90
2019-01-27T06:08:45.240Z,1.90
2019-01-27T06:12:45.282Z,2.00
2019-01-27T06:16:45.329Z,2.00
2019-01-27T06:20:45.203Z,1.90
2019-01-27T06:24:45.225Z,1.80
2019-01-27T06:28:45.370Z,1.70
2019-01-27T06:32:46.855Z,1.60
2019-01-27T06:36:45.972Z,1.50
2019-01-27T06:40:45.236Z,1.40
2019-01-27T06:44:45.324Z,1.40
2019-01-27T06:48:45.375Z,1.40
2019-01-27T06:52:45.225Z,1.30
2019-01-27T06:56:45.266Z,1.30
2019-01-27T07:00:49.703Z,1.30
2019-01-27T07:04:50.441Z,1.30
2019-01-27T07:08:53.622Z,1.40
2019-01-27T07:12:54.382Z,1.30
2019-01-27T07:17:13.348Z,1.30
2019-01-27T07:21:23.098Z,1.30
2019-01-27T07:25:29.942Z,1.40
2019-01-27T07:29:33.303Z,1.40
2019-01-27T07:33:34.069Z,1.40
2019-01-27T07:37:37.710Z,1.40
2019-01-27T07:41:41.159Z,1.50
2019-01-27T07:45:44.755Z,1.60
2019-01-27T07:49:57.646Z,1.70
2019-01-27T07:53:58.398Z,1.70
2019-01-27T07:58:11.159Z,1.80
2019-01-27T08:02:11.909Z,2.00
2019-01-27T08:06:12.678Z,2.10
2019-01-27T08:10:16.576Z,2.20
2019-01-27T08:14:17.353Z,2.30
2019-01-27T08:18:18.114Z,2.30
2019-01-27T08:22:19.970Z,2.30
2019-01-27T08:26:23.366Z,2.40
2019-01-27T08:30:36.010Z,2.40
2019-01-27T08:34:36.778Z,2.30
2019-01-27T08:38:40.147Z,2.40
2019-01-27T08:42:41.461Z,2.30
2019-01-27T08:46:42.225Z,2.30
2019-01-27T08:50:41.341Z,2.40
2019-01-27T08:54:40.466Z,2.40
2019-01-27T08:58:39.596Z,2.30
2019-01-27T09:02:46.030Z,2.30
2019-01-27T09:06:55.990Z,2.30
2019-01-27T09:11:05.828Z,2.30
2019-01-27T09:15:09.011Z,2.30
2019-01-27T09:19:21.869Z,2.20
2019-01-27T09:23:22.626Z,2.30
2019-01-27T09:27:27.193Z,2.20
2019-01-27T09:31:27.955Z,2.30
2019-01-27T09:35:34.645Z,2.40
2019-01-27T09:39:51.790Z,2.50
2019-01-27T09:44:04.473Z,2.50
2019-01-27T09:48:07.944Z,2.50
2019-01-27T09:52:08.734Z,2.50
2019-01-27T09:56:21.580Z,2.50
2019-01-27T10:00:31.638Z,2.60
2019-01-27T10:04:44.319Z,2.80
2019-01-27T10:08:47.511Z,2.90
2019-01-27T10:12:48.279Z,3.00
2019-01-27T10:17:00.674Z,3.00
2019-01-27T10:21:17.844Z,3.20
2019-01-27T10:25:18.663Z,3.40
2019-01-27T10:29:19.417Z,3.50
2019-01-27T10:33:20.163Z,3.60
2019-01-27T10:37:23.806Z,3.50
2019-01-27T10:41:43.096Z,3.50
2019-01-27T10:46:00.302Z,3.70
2019-01-27T10:50:01.082Z,3.80
2019-01-27T10:54:04.710Z,3.90
2019-01-27T10:58:23.506Z,4.20
2019-01-27T11:02:36.970Z,4.20
2019-01-27T11:06:51.918Z,4.20
2019-01-27T11:10:52.700Z,4.30
2019-01-27T11:15:05.088Z,4.30
2019-01-27T11:19:05.859Z,4.40
2019-01-27T11:23:06.807Z,4.50
2019-01-27T11:27:10.350Z,4.60
2019-01-27T11:31:13.501Z,4.70
2019-01-27T11:35:14.278Z,4.60
2019-01-27T11:39:30.030Z,4.60
2019-01-27T11:43:30.788Z,4.70
2019-01-27T11:47:34.510Z,4.70
2019-01-27T11:51:34.895Z,4.70
2019-01-27T11:55:34.066Z,4.70
2019-01-27T11:59:33.176Z,4.70
2019-01-27T12:03:32.298Z,4.80
2019-01-27T12:07:31.427Z,4.80
2019-01-27T12:11:30.663Z,4.90
2019-01-27T12:15:29.771Z,5.00
2019-01-27T12:19:28.907Z,5.10
2019-01-27T12:23:28.009Z,5.00
2019-01-27T12:27:27.137Z,5.10
2019-01-27T12:31:26.317Z,5.30
2019-01-27T12:35:25.488Z,5.50
2019-01-27T12:39:24.619Z,5.70
2019-01-27T12:43:23.721Z,5.70
2019-01-27T12:47:22.851Z,5.90
2019-01-27T12:51:21.954Z,6.00
2019-01-27T12:55:21.088Z,6.40
2019-01-27T12:59:21.451Z,6.90
2019-01-27T13:03:21.562Z,7.20
2019-01-27T13:07:20.862Z,7.40
2019-01-27T13:11:19.987Z,7.50
2019-01-27T13:15:20.949Z,7.90
2019-01-27T13:19:21.034Z,8.10
2019-01-27T13:23:20.146Z,8.00
2019-01-27T13:27:19.285Z,7.70
2019-01-27T13:31:18.723Z,7.50
2019-01-27T13:35:17.944Z,7.00
2019-01-27T13:39:17.050Z,6.90
2019-01-27T13:43:16.179Z,6.90
2019-01-27T13:47:15.316Z,7.00
2019-01-27T13:51:14.429Z,7.10
2019-01-27T13:55:16.737Z,7.10
2019-01-27T13:59:15.858Z,6.80
2019-01-27T14:03:16.001Z,6.90
2019-01-27T14:07:15.111Z,6.80
2019-01-27T14:11:14.435Z,6.60
2019-01-27T14:15:17.099Z,6.50
2019-01-27T14:19:16.301Z,6.30
2019-01-27T14:23:15.402Z,6.00
2019-01-27T14:27:15.468Z,6.00
2019-01-27T14:31:14.578Z,5.90
2019-01-27T14:35:16.195Z,5.70
2019-01-27T14:39:15.309Z,5.50
2019-01-27T14:43:14.474Z,5.30
2019-01-27T14:47:13.706Z,5.10
2019-01-27T14:51:13.041Z,4.90
2019-01-27T14:55:15.246Z,4.70
2019-01-27T14:59:14.530Z,4.50
2019-01-27T15:03:14.282Z,4.30
2019-01-27T15:07:13.677Z,4.20
2019-01-27T15:11:12.780Z,4.10
2019-01-27T15:15:14.578Z,3.90
2019-01-27T15:19:13.985Z,3.80
2019-01-27T15:23:13.362Z,3.70
2019-01-27T15:27:12.468Z,3.60
2019-01-27T15:31:11.919Z,3.50
2019-01-27T15:35:11.085Z,3.50
2019-01-27T15:39:10.799Z,3.40
2019-01-27T15:43:10.009Z,3.30
2019-01-27T15:47:09.949Z,3.30
2019-01-27T15:51:09.160Z,3.20
2019-01-27T15:55:11.846Z,3.20
2019-01-27T15:59:11.185Z,3.20
2019-01-27T16:03:10.784Z,3.00
2019-01-27T16:07:09.980Z,3.00
2019-01-27T16:11:10.645Z,2.80
2019-01-27T16:15:18.470Z,2.60
2019-01-27T16:19:17.962Z,2.50
2019-01-27T16:23:31.208Z,2.40
2019-01-27T16:27:30.362Z,2.20
2019-01-27T16:31:31.110Z,2.10
2019-01-27T16:35:30.514Z,2.00
2019-01-27T16:39:29.622Z,1.90
2019-01-27T16:43:29.185Z,1.80
2019-01-27T16:47:28.303Z,1.70
2019-01-27T16:51:28.365Z,1.60
2019-01-27T16:55:27.579Z,1.60
2019-01-27T16:59:27.102Z,1.50
2019-01-27T17:03:26.466Z,1.50
2019-01-27T17:07:26.221Z,1.40
2019-01-27T17:11:25.330Z,1.30
2019-01-27T17:15:24.471Z,1.20
2019-01-27T17:19:23.579Z,1.20
2019-01-27T17:23:23.429Z,1.10
2019-01-27T17:27:23.150Z,1.00
2019-01-27T17:31:23.296Z,1.00
2019-01-27T17:35:22.778Z,1.00
2019-01-27T17:39:22.385Z,1.00
2019-01-27T17:43:21.493Z,1.00
2019-01-27T17:47:20.826Z,1.10
2019-01-27T17:51:19.930Z,1.10
2019-01-27T17:55:40.650Z,1.10
2019-01-27T17:59:41.784Z,1.20
2019-01-27T18:03:51.466Z,1.20
2019-01-27T18:07:52.222Z,1.20
2019-01-27T18:12:08.202Z,1.20
2019-01-27T18:16:08.951Z,1.30
2019-01-27T18:20:11.882Z,1.30
2019-01-27T18:24:11.162Z,1.20
2019-01-27T18:28:10.438Z,1.20
2019-01-27T18:32:10.642Z,1.20
2019-01-27T18:36:09.932Z,1.10
2019-01-27T18:40:11.630Z,1.10
2019-01-27T18:44:12.762Z,1.00
2019-01-27T18:48:11.938Z,1.00
2019-01-27T18:52:11.266Z,1.00
2019-01-27T18:56:14.682Z,1.00
2019-01-27T19:00:26.055Z,1.00
2019-01-27T19:04:27.031Z,0.90
2019-01-27T19:08:32.561Z,0.90
2019-01-27T19:12:33.463Z,0.90
2019-01-27T19:16:41.150Z,0.90
2019-01-27T19:20:41.906Z,1.00
2019-01-27T19:24:51.922Z,1.00
2019-01-27T19:28:55.583Z,1.00
2019-01-27T19:32:59.870Z,1.00
2019-01-27T19:37:04.674Z,1.00
2019-01-27T19:41:11.077Z,1.00
2019-01-27T19:45:12.966Z,1.00
2019-01-27T19:49:13.794Z,0.90
2019-01-27T19:53:17.617Z,0.90
2019-01-27T19:57:27.988Z,1.00
2019-01-27T20:01:45.063Z,1.00
2019-01-27T20:06:01.148Z,1.00
2019-01-27T20:10:18.447Z,1.00
2019-01-27T20:14:35.648Z,1.10
2019-01-27T20:18:52.773Z,1.10
2019-01-27T20:22:59.293Z,1.10
2019-01-27T20:27:00.071Z,1.10
2019-01-27T20:31:17.419Z,1.00
2019-01-27T20:35:23.972Z,1.10
2019-01-27T20:39:41.331Z,1.20
2019-01-27T20:43:47.822Z,1.20
2019-01-27T20:48:06.749Z,1.20
2019-01-27T20:52:08.506Z,1.10
2019-01-27T20:56:18.010Z,1.30
2019-01-27T21:00:19.502Z,1.40
2019-01-27T21:04:20.286Z,1.40
2019-01-27T21:08:27.057Z,1.40
2019-01-27T21:12:27.802Z,1.40
2019-01-27T21:20:38.593Z,1.60
2019-01-27T21:24:37.713Z,1.60
2019-01-27T21:28:36.833Z,1.80
2019-01-27T21:32:35.941Z,2.00
2019-01-27T21:36:35.080Z,2.20
2019-01-27T21:40:34.186Z,2.30
2019-01-27T21:44:33.321Z,2.30
2019-01-27T21:48:32.438Z,2.60
2019-01-27T21:52:31.587Z,2.80
2019-01-27T21:56:30.696Z,2.80
2019-01-27T22:00:29.821Z,2.90
2019-01-27T22:04:28.938Z,3.00
2019-01-27T22:08:28.071Z,3.10
2019-01-27T22:12:27.174Z,3.20
2019-01-27T22:16:26.298Z,3.20
2019-01-27T22:20:25.418Z,3.20
2019-01-27T22:24:24.539Z,3.30
2019-01-27T22:28:23.647Z,3.40
2019-01-27T22:32:22.771Z,3.50
2019-01-27T22:36:21.909Z,3.40
2019-01-27T22:40:21.010Z,3.50
2019-01-27T22:44:20.134Z,3.50
2019-01-27T22:48:19.243Z,3.60
2019-01-27T22:52:18.363Z,3.60
2019-01-27T22:56:17.480Z,3.70
2019-01-27T23:00:41.969Z,3.70
2019-01-27T23:04:41.086Z,3.70
2019-01-27T23:08:41.223Z,3.60
2019-01-27T23:12:40.330Z,3.60
